sensor_id;sensor_type;location;lat;lon;timestamp;pressure;altitude;pressure_sealevel;temperature;humidity
48624;BME280;34422;45.802;16.114;2022-07-22T00:01:01;100311.09;;;20.12;89.28
48624;BME280;34422;45.802;16.114;2022-07-22T00:03:28;100300.41;;;20.11;89.42
48624;BME280;34422;45.802;16.114;2022-07-22T00:05:54;100299.88;;;20.09;89.00
48624;BME280;34422;45.802;16.114;2022-07-22T00:08:21;100291.34;;;20.05;89.06
48624;BME280;34422;45.802;16.114;2022-07-22T00:10:48;100291.34;;;20.05;89.39
48624;BME280;34422;45.802;16.114;2022-07-22T00:13:15;100292.97;;;20.01;90.41
48624;BME280;34422;45.802;16.114;2022-07-22T00:15:42;100285.28;;;20.03;89.88
48624;BME280;34422;45.802;16.114;2022-07-22T00:18:09;100294.38;;;20.09;89.42
48624;BME280;34422;45.802;16.114;2022-07-22T00:20:35;100288.06;;;20.08;89.60
48624;BME280;34422;45.802;16.114;2022-07-22T00:23:02;100284.75;;;20.06;90.73
48624;BME280;34422;45.802;16.114;2022-07-22T00:25:29;100284.75;;;20.01;90.92
48624;BME280;34422;45.802;16.114;2022-07-22T00:27:56;100280.34;;;20.00;90.19
48624;BME280;34422;45.802;16.114;2022-07-22T00:30:22;100287.22;;;19.98;90.61
48624;BME280;34422;45.802;16.114;2022-07-22T00:32:49;100274.56;;;19.97;90.64
48624;BME280;34422;45.802;16.114;2022-07-22T00:35:16;100277.03;;;19.98;90.45
48624;BME280;34422;45.802;16.114;2022-07-22T00:37:43;100277.03;;;19.98;91.31
48624;BME280;34422;45.802;16.114;2022-07-22T00:40:10;100283.09;;;19.95;91.64
48624;BME280;34422;45.802;16.114;2022-07-22T00:42:37;100275.97;;;19.94;91.69
48624;BME280;34422;45.802;16.114;2022-07-22T00:45:05;100275.41;;;19.92;90.82
48624;BME280;34422;45.802;16.114;2022-07-22T00:47:33;100276.78;;;19.95;89.42
48624;BME280;34422;45.802;16.114;2022-07-22T00:50:00;100274.84;;;20.00;87.29
48624;BME280;34422;45.802;16.114;2022-07-22T00:52:26;100280.91;;;20.02;87.39
48624;BME280;34422;45.802;16.114;2022-07-22T00:54:54;100278.69;;;19.99;86.89
48624;BME280;34422;45.802;16.114;2022-07-22T00:57:21;100270.47;;;19.99;86.94
48624;BME280;34422;45.802;16.114;2022-07-22T00:59:48;100276.50;;;20.01;87.59
48624;BME280;34422;45.802;16.114;2022-07-22T01:02:14;100270.16;;;19.96;88.03
48624;BME280;34422;45.802;16.114;2022-07-22T01:04:41;100268.78;;;19.83;89.14
48624;BME280;34422;45.802;16.114;2022-07-22T01:07:08;100257.72;;;19.42;91.20
48624;BME280;34422;45.802;16.114;2022-07-22T01:09:35;100258.69;;;18.96;95.26
48624;BME280;34422;45.802;16.114;2022-07-22T01:12:03;100267.31;;;18.67;98.65
48624;BME280;34422;45.802;16.114;2022-07-22T01:14:30;100265.97;;;18.70;98.93
48624;BME280;34422;45.802;16.114;2022-07-22T01:16:56;100269.53;;;18.75;98.58
48624;BME280;34422;45.802;16.114;2022-07-22T01:19:23;100280.00;;;18.78;97.77
48624;BME280;34422;45.802;16.114;2022-07-22T01:21:50;100290.44;;;18.81;98.08
48624;BME280;34422;45.802;16.114;2022-07-22T01:24:17;100298.91;;;18.80;98.96
48624;BME280;34422;45.802;16.114;2022-07-22T01:26:43;100293.72;;;18.84;99.18
48624;BME280;34422;45.802;16.114;2022-07-22T01:29:10;100311.53;;;18.81;99.58
48624;BME280;34422;45.802;16.114;2022-07-22T01:31:37;100306.84;;;18.76;99.84
48624;BME280;34422;45.802;16.114;2022-07-22T01:34:04;100312.34;;;18.81;99.57
48624;BME280;34422;45.802;16.114;2022-07-22T01:36:30;100311.00;;;18.84;99.25
48624;BME280;34422;45.802;16.114;2022-07-22T01:38:57;100301.97;;;18.89;99.15
48624;BME280;34422;45.802;16.114;2022-07-22T01:41:24;100301.75;;;18.95;98.13
48624;BME280;34422;45.802;16.114;2022-07-22T01:43:51;100308.03;;;18.96;98.64
48624;BME280;34422;45.802;16.114;2022-07-22T01:46:17;100308.59;;;18.98;99.29
48624;BME280;34422;45.802;16.114;2022-07-22T01:48:44;100300.09;;;18.94;98.78
48624;BME280;34422;45.802;16.114;2022-07-22T01:51:11;100303.91;;;18.93;99.82
48624;BME280;34422;45.802;16.114;2022-07-22T01:53:38;100309.41;;;18.93;100.00
48624;BME280;34422;45.802;16.114;2022-07-22T01:56:05;100308.56;;;18.93;100.00
48624;BME280;34422;45.802;16.114;2022-07-22T01:58:32;100316.78;;;18.93;99.37
48624;BME280;34422;45.802;16.114;2022-07-22T02:00:59;100317.38;;;18.95;99.04
48624;BME280;34422;45.802;16.114;2022-07-22T02:03:26;100312.19;;;19.03;98.38
48624;BME280;34422;45.802;16.114;2022-07-22T02:05:52;100304.78;;;19.04;97.88
48624;BME280;34422;45.802;16.114;2022-07-22T02:08:19;100302.03;;;18.99;97.66
48624;BME280;34422;45.802;16.114;2022-07-22T02:10:46;100306.97;;;18.97;98.29
48624;BME280;34422;45.802;16.114;2022-07-22T02:13:13;100299.78;;;18.91;98.36
48624;BME280;34422;45.802;16.114;2022-07-22T02:15:39;100296.78;;;18.92;98.47
48624;BME280;34422;45.802;16.114;2022-07-22T02:18:15;100303.03;;;18.83;100.00
48624;BME280;34422;45.802;16.114;2022-07-22T02:20:43;100313.34;;;18.65;100.00
48624;BME280;34422;45.802;16.114;2022-07-22T02:23:10;100327.31;;;18.64;100.00
48624;BME280;34422;45.802;16.114;2022-07-22T02:25:39;100331.72;;;18.65;100.00
48624;BME280;34422;45.802;16.114;2022-07-22T02:28:06;100343.28;;;18.40;100.00
48624;BME280;34422;45.802;16.114;2022-07-22T02:30:33;100351.91;;;18.22;100.00
48624;BME280;34422;45.802;16.114;2022-07-22T02:33:00;100359.53;;;18.20;100.00
48624;BME280;34422;45.802;16.114;2022-07-22T02:35:27;100354.06;;;18.20;100.00
48624;BME280;34422;45.802;16.114;2022-07-22T02:37:53;100350.03;;;18.27;100.00
48624;BME280;34422;45.802;16.114;2022-07-22T02:40:20;100345.97;;;18.30;100.00
48624;BME280;34422;45.802;16.114;2022-07-22T02:42:47;100338.59;;;18.35;100.00
48624;BME280;34422;45.802;16.114;2022-07-22T02:45:14;100337.50;;;18.36;100.00
48624;BME280;34422;45.802;16.114;2022-07-22T02:47:49;100343.81;;;18.37;100.00
48624;BME280;34422;45.802;16.114;2022-07-22T02:50:16;100346.84;;;18.40;100.00
48624;BME280;34422;45.802;16.114;2022-07-22T02:52:43;100352.06;;;18.42;100.00
48624;BME280;34422;45.802;16.114;2022-07-22T02:55:10;100351.47;;;18.35;100.00
48624;BME280;34422;45.802;16.114;2022-07-22T02:57:36;100346.81;;;18.35;100.00
48624;BME280;34422;45.802;16.114;2022-07-22T03:00:06;100355.59;;;18.37;100.00
48624;BME280;34422;45.802;16.114;2022-07-22T03:02:35;100361.91;;;18.38;100.00
48624;BME280;34422;45.802;16.114;2022-07-22T03:05:03;100364.63;;;18.38;100.00
48624;BME280;34422;45.802;16.114;2022-07-22T03:07:30;100367.44;;;18.43;100.00
48624;BME280;34422;45.802;16.114;2022-07-22T03:09:59;100364.13;;;18.46;100.00
48624;BME280;34422;45.802;16.114;2022-07-22T03:12:26;100361.44;;;18.51;100.00
48624;BME280;34422;45.802;16.114;2022-07-22T03:14:53;100369.72;;;18.56;100.00
48624;BME280;34422;45.802;16.114;2022-07-22T03:17:19;100370.88;;;18.60;100.00
48624;BME280;34422;45.802;16.114;2022-07-22T03:19:46;100372.50;;;18.61;100.00
48624;BME280;34422;45.802;16.114;2022-07-22T03:22:13;100378.00;;;18.61;100.00
48624;BME280;34422;45.802;16.114;2022-07-22T03:24:39;100370.66;;;18.67;99.49
48624;BME280;34422;45.802;16.114;2022-07-22T03:27:06;100368.16;;;18.65;100.00
48624;BME280;34422;45.802;16.114;2022-07-22T03:29:33;100371.38;;;18.57;100.00
48624;BME280;34422;45.802;16.114;2022-07-22T03:32:00;100373.34;;;18.62;100.00
48624;BME280;34422;45.802;16.114;2022-07-22T03:34:26;100376.91;;;18.62;100.00
48624;BME280;34422;45.802;16.114;2022-07-22T03:36:53;100374.47;;;18.66;100.00
48624;BME280;34422;45.802;16.114;2022-07-22T03:39:20;100378.09;;;18.71;100.00
48624;BME280;34422;45.802;16.114;2022-07-22T03:41:46;100377.84;;;18.78;99.59
48624;BME280;34422;45.802;16.114;2022-07-22T03:44:13;100375.41;;;18.81;99.73
48624;BME280;34422;45.802;16.114;2022-07-22T03:46:40;100378.16;;;18.87;99.75
48624;BME280;34422;45.802;16.114;2022-07-22T03:49:07;100384.78;;;18.86;100.00
48624;BME280;34422;45.802;16.114;2022-07-22T03:51:34;100380.63;;;18.83;100.00
48624;BME280;34422;45.802;16.114;2022-07-22T03:54:01;100384.47;;;18.82;100.00
48624;BME280;34422;45.802;16.114;2022-07-22T03:56:27;100376.50;;;18.80;100.00
48624;BME280;34422;45.802;16.114;2022-07-22T03:58:54;100382.03;;;18.86;99.59
48624;BME280;34422;45.802;16.114;2022-07-22T04:01:21;100390.28;;;18.91;99.32
48624;BME280;34422;45.802;16.114;2022-07-22T04:03:49;100393.31;;;18.94;99.55
48624;BME280;34422;45.802;16.114;2022-07-22T04:06:16;100382.66;;;18.98;100.00
48624;BME280;34422;45.802;16.114;2022-07-22T04:08:43;100386.53;;;19.07;98.89
48624;BME280;34422;45.802;16.114;2022-07-22T04:11:10;100395.91;;;19.16;99.03
48624;BME280;34422;45.802;16.114;2022-07-22T04:13:36;100400.91;;;19.24;98.60
48624;BME280;34422;45.802;16.114;2022-07-22T04:16:03;100389.66;;;19.26;99.17
48624;BME280;34422;45.802;16.114;2022-07-22T04:18:31;100393.25;;;19.31;98.75
48624;BME280;34422;45.802;16.114;2022-07-22T04:20:58;100392.19;;;19.37;99.93
48624;BME280;34422;45.802;16.114;2022-07-22T04:23:25;100393.28;;;19.41;99.11
48624;BME280;34422;45.802;16.114;2022-07-22T04:25:52;100387.88;;;19.51;98.56
48624;BME280;34422;45.802;16.114;2022-07-22T04:28:19;100397.25;;;19.61;97.70
48624;BME280;34422;45.802;16.114;2022-07-22T04:30:45;100398.91;;;19.72;97.03
48624;BME280;34422;45.802;16.114;2022-07-22T04:33:12;100400.59;;;19.83;97.16
48624;BME280;34422;45.802;16.114;2022-07-22T04:35:39;100398.44;;;19.90;97.84
48624;BME280;34422;45.802;16.114;2022-07-22T04:38:09;100393.50;;;19.92;97.03
48624;BME280;34422;45.802;16.114;2022-07-22T04:40:36;100400.09;;;19.96;97.66
48624;BME280;34422;45.802;16.114;2022-07-22T04:43:03;100401.72;;;19.97;97.00
48624;BME280;34422;45.802;16.114;2022-07-22T04:45:29;100405.56;;;19.96;95.64
48624;BME280;34422;45.802;16.114;2022-07-22T04:47:57;100410.53;;;20.09;94.97
48624;BME280;34422;45.802;16.114;2022-07-22T04:50:24;100400.41;;;20.20;94.72
48624;BME280;34422;45.802;16.114;2022-07-22T04:52:50;100405.09;;;20.30;93.68
48624;BME280;34422;45.802;16.114;2022-07-22T04:55:17;100407.81;;;20.24;93.35
48624;BME280;34422;45.802;16.114;2022-07-22T04:57:44;100411.16;;;20.37;91.93
48624;BME280;34422;45.802;16.114;2022-07-22T05:00:11;100417.78;;;20.61;90.06
48624;BME280;34422;45.802;16.114;2022-07-22T05:02:38;100419.72;;;20.76;88.55
48624;BME280;34422;45.802;16.114;2022-07-22T05:05:05;100405.66;;;20.98;88.00
48624;BME280;34422;45.802;16.114;2022-07-22T05:07:31;100412.22;;;21.22;87.66
48624;BME280;34422;45.802;16.114;2022-07-22T05:09:59;100406.06;;;21.50;85.09
48624;BME280;34422;45.802;16.114;2022-07-22T05:12:26;100417.59;;;21.62;83.26
48624;BME280;34422;45.802;16.114;2022-07-22T05:14:52;100416.28;;;22.09;82.18
48624;BME280;34422;45.802;16.114;2022-07-22T05:17:19;100421.16;;;22.56;81.06
48624;BME280;34422;45.802;16.114;2022-07-22T05:19:46;100428.78;;;23.03;79.75
48624;BME280;34422;45.802;16.114;2022-07-22T05:22:13;100421.31;;;23.04;78.25
48624;BME280;34422;45.802;16.114;2022-07-22T05:24:40;100422.03;;;23.15;78.48
48624;BME280;34422;45.802;16.114;2022-07-22T05:27:06;100421.22;;;23.38;78.88
48624;BME280;34422;45.802;16.114;2022-07-22T05:29:33;100420.56;;;24.13;76.88
48624;BME280;34422;45.802;16.114;2022-07-22T05:32:00;100420.16;;;24.89;71.69
48624;BME280;34422;45.802;16.114;2022-07-22T05:34:27;100428.78;;;24.18;75.36
48624;BME280;34422;45.802;16.114;2022-07-22T05:36:54;100428.25;;;23.97;77.01
48624;BME280;34422;45.802;16.114;2022-07-22T05:39:20;100422.41;;;23.80;77.95
48624;BME280;34422;45.802;16.114;2022-07-22T05:41:47;100427.13;;;23.98;78.05
48624;BME280;34422;45.802;16.114;2022-07-22T05:44:14;100432.69;;;24.17;78.35
48624;BME280;34422;45.802;16.114;2022-07-22T05:46:41;100421.25;;;24.42;76.77
48624;BME280;34422;45.802;16.114;2022-07-22T05:49:08;100429.09;;;24.86;74.61
48624;BME280;34422;45.802;16.114;2022-07-22T05:51:34;100429.19;;;25.13;72.26
48624;BME280;34422;45.802;16.114;2022-07-22T05:54:01;100429.56;;;25.07;70.71
48624;BME280;34422;45.802;16.114;2022-07-22T05:56:29;100425.19;;;25.20;71.30
48624;BME280;34422;45.802;16.114;2022-07-22T05:58:55;100433.28;;;25.16;71.46
48624;BME280;34422;45.802;16.114;2022-07-22T06:01:22;100431.59;;;26.11;68.96
48624;BME280;34422;45.802;16.114;2022-07-22T06:03:49;100430.13;;;26.27;67.49
48624;BME280;34422;45.802;16.114;2022-07-22T06:06:16;100435.25;;;26.47;64.26
48624;BME280;34422;45.802;16.114;2022-07-22T06:08:43;100428.81;;;27.05;58.68
48624;BME280;34422;45.802;16.114;2022-07-22T06:11:10;100433.97;;;26.98;60.87
48624;BME280;34422;45.802;16.114;2022-07-22T06:13:37;100442.00;;;27.31;60.22
48624;BME280;34422;45.802;16.114;2022-07-22T06:16:05;100447.88;;;27.60;58.35
48624;BME280;34422;45.802;16.114;2022-07-22T06:18:32;100446.25;;;27.37;59.50
48624;BME280;34422;45.802;16.114;2022-07-22T06:20:59;100451.09;;;28.02;57.13
48624;BME280;34422;45.802;16.114;2022-07-22T06:23:25;100451.50;;;27.69;57.48
48624;BME280;34422;45.802;16.114;2022-07-22T06:25:52;100440.66;;;28.85;54.44
48624;BME280;34422;45.802;16.114;2022-07-22T06:28:19;100445.22;;;28.72;54.15
48624;BME280;34422;45.802;16.114;2022-07-22T06:30:46;100438.97;;;29.10;54.02
48624;BME280;34422;45.802;16.114;2022-07-22T06:33:13;100438.16;;;30.15;51.70
48624;BME280;34422;45.802;16.114;2022-07-22T06:35:39;100445.50;;;29.98;52.00
48624;BME280;34422;45.802;16.114;2022-07-22T06:38:08;100454.94;;;29.39;52.01
48624;BME280;34422;45.802;16.114;2022-07-22T06:40:35;100446.63;;;30.68;49.53
48624;BME280;34422;45.802;16.114;2022-07-22T06:43:02;100451.38;;;31.58;45.51
48624;BME280;34422;45.802;16.114;2022-07-22T06:45:30;100449.94;;;31.16;45.69
48624;BME280;34422;45.802;16.114;2022-07-22T06:47:56;100452.22;;;31.95;44.49
48624;BME280;34422;45.802;16.114;2022-07-22T06:50:24;100452.38;;;32.51;44.17
48624;BME280;34422;45.802;16.114;2022-07-22T06:52:51;100465.47;;;33.03;41.95
48624;BME280;34422;45.802;16.114;2022-07-22T06:55:18;100463.78;;;32.86;42.03
48624;BME280;34422;45.802;16.114;2022-07-22T06:57:45;100457.44;;;32.73;42.46
48624;BME280;34422;45.802;16.114;2022-07-22T07:00:12;100445.00;;;32.87;42.32
48624;BME280;34422;45.802;16.114;2022-07-22T07:02:39;100456.38;;;32.38;43.86
48624;BME280;34422;45.802;16.114;2022-07-22T07:05:06;100451.94;;;32.37;44.12
48624;BME280;34422;45.802;16.114;2022-07-22T07:07:33;100444.06;;;31.78;45.21
48624;BME280;34422;45.802;16.114;2022-07-22T07:09:59;100446.09;;;32.30;44.94
48624;BME280;34422;45.802;16.114;2022-07-22T07:12:26;100446.91;;;32.98;43.48
48624;BME280;34422;45.802;16.114;2022-07-22T07:14:53;100448.31;;;33.67;42.33
48624;BME280;34422;45.802;16.114;2022-07-22T07:17:20;100450.06;;;33.56;41.96
48624;BME280;34422;45.802;16.114;2022-07-22T07:19:47;100446.88;;;33.26;43.35
48624;BME280;34422;45.802;16.114;2022-07-22T07:22:14;100450.81;;;32.94;43.09
48624;BME280;34422;45.802;16.114;2022-07-22T07:24:41;100462.91;;;32.70;43.26
48624;BME280;34422;45.802;16.114;2022-07-22T07:27:08;100448.53;;;32.71;43.20
48624;BME280;34422;45.802;16.114;2022-07-22T07:29:34;100456.69;;;33.04;42.07
48624;BME280;34422;45.802;16.114;2022-07-22T07:32:01;100454.28;;;32.35;44.07
48624;BME280;34422;45.802;16.114;2022-07-22T07:34:28;100456.75;;;32.64;43.48
48624;BME280;34422;45.802;16.114;2022-07-22T07:36:55;100455.97;;;33.23;42.29
48624;BME280;34422;45.802;16.114;2022-07-22T07:39:21;100447.63;;;33.86;40.99
48624;BME280;34422;45.802;16.114;2022-07-22T07:41:48;100449.16;;;34.18;40.18
48624;BME280;34422;45.802;16.114;2022-07-22T07:44:15;100456.38;;;33.53;41.36
48624;BME280;34422;45.802;16.114;2022-07-22T07:46:42;100456.91;;;33.90;40.58
48624;BME280;34422;45.802;16.114;2022-07-22T07:49:08;100458.66;;;34.49;39.35
48624;BME280;34422;45.802;16.114;2022-07-22T07:51:35;100460.63;;;33.94;40.67
48624;BME280;34422;45.802;16.114;2022-07-22T07:54:02;100454.03;;;35.37;38.62
48624;BME280;34422;45.802;16.114;2022-07-22T07:56:29;100454.22;;;35.48;36.26
48624;BME280;34422;45.802;16.114;2022-07-22T07:58:56;100459.78;;;34.64;37.60
48624;BME280;34422;45.802;16.114;2022-07-22T08:01:22;100449.13;;;35.80;35.59
48624;BME280;34422;45.802;16.114;2022-07-22T08:03:49;100445.38;;;35.49;36.37
48624;BME280;34422;45.802;16.114;2022-07-22T08:06:16;100448.41;;;35.18;36.60
48624;BME280;34422;45.802;16.114;2022-07-22T08:08:43;100449.97;;;35.15;36.05
48624;BME280;34422;45.802;16.114;2022-07-22T08:11:10;100455.19;;;35.59;35.86
48624;BME280;34422;45.802;16.114;2022-07-22T08:13:36;100450.84;;;34.97;36.58
48624;BME280;34422;45.802;16.114;2022-07-22T08:16:04;100445.22;;;34.58;37.20
48624;BME280;34422;45.802;16.114;2022-07-22T08:18:31;100443.16;;;35.16;36.34
48624;BME280;34422;45.802;16.114;2022-07-22T08:20:57;100446.31;;;35.80;34.55
48624;BME280;34422;45.802;16.114;2022-07-22T08:23:24;100450.50;;;35.67;35.16
48624;BME280;34422;45.802;16.114;2022-07-22T08:25:51;100440.28;;;35.13;36.17
48624;BME280;34422;45.802;16.114;2022-07-22T08:28:18;100443.81;;;35.29;35.94
48624;BME280;34422;45.802;16.114;2022-07-22T08:30:45;100455.97;;;35.14;36.25
48624;BME280;34422;45.802;16.114;2022-07-22T08:33:12;100446.34;;;35.34;35.19
48624;BME280;34422;45.802;16.114;2022-07-22T08:35:38;100458.03;;;36.38;33.90
48624;BME280;34422;45.802;16.114;2022-07-22T08:38:05;100454.81;;;35.83;35.40
48624;BME280;34422;45.802;16.114;2022-07-22T08:40:32;100453.63;;;35.61;35.00
48624;BME280;34422;45.802;16.114;2022-07-22T08:42:59;100444.56;;;36.24;34.35
48624;BME280;34422;45.802;16.114;2022-07-22T08:45:30;100449.56;;;36.38;33.93
48624;BME280;34422;45.802;16.114;2022-07-22T08:47:57;100451.66;;;35.39;34.55
48624;BME280;34422;45.802;16.114;2022-07-22T08:50:30;100455.44;;;34.85;36.41
48624;BME280;34422;45.802;16.114;2022-07-22T08:52:57;100451.16;;;36.09;34.03
48624;BME280;34422;45.802;16.114;2022-07-22T08:55:24;100452.75;;;36.07;33.56
48624;BME280;34422;45.802;16.114;2022-07-22T08:57:51;100447.06;;;36.29;34.43
48624;BME280;34422;45.802;16.114;2022-07-22T09:00:21;100445.50;;;35.56;34.68
48624;BME280;34422;45.802;16.114;2022-07-22T09:02:48;100442.00;;;35.40;35.83
48624;BME280;34422;45.802;16.114;2022-07-22T09:05:16;100452.91;;;36.17;35.46
48624;BME280;34422;45.802;16.114;2022-07-22T09:07:44;100442.00;;;35.40;35.78
48624;BME280;34422;45.802;16.114;2022-07-22T09:10:17;100439.34;;;35.05;36.10
48624;BME280;34422;45.802;16.114;2022-07-22T09:13:00;100444.66;;;35.52;36.11
48624;BME280;34422;45.802;16.114;2022-07-22T09:15:35;100443.66;;;35.90;34.75
48624;BME280;34422;45.802;16.114;2022-07-22T09:18:03;100433.56;;;35.63;35.16
48624;BME280;34422;45.802;16.114;2022-07-22T09:20:31;100437.31;;;35.97;34.26
48624;BME280;34422;45.802;16.114;2022-07-22T09:22:58;100440.31;;;36.38;33.27
48624;BME280;34422;45.802;16.114;2022-07-22T09:25:32;100440.06;;;36.50;34.03
48624;BME280;34422;45.802;16.114;2022-07-22T09:30:33;100423.22;;;35.02;35.09
48624;BME280;34422;45.802;16.114;2022-07-22T09:33:01;100419.78;;;34.70;36.68
48624;BME280;34422;45.802;16.114;2022-07-22T09:35:29;100415.03;;;34.93;35.79
48624;BME280;34422;45.802;16.114;2022-07-22T09:38:01;100416.47;;;35.07;35.63
48624;BME280;34422;45.802;16.114;2022-07-22T09:40:30;100420.13;;;35.30;34.63
48624;BME280;34422;45.802;16.114;2022-07-22T09:43:10;100419.63;;;35.47;33.67
48624;BME280;34422;45.802;16.114;2022-07-22T09:48:11;100417.41;;;34.91;35.02
48624;BME280;34422;45.802;16.114;2022-07-22T09:50:38;100419.13;;;34.77;35.32
48624;BME280;34422;45.802;16.114;2022-07-22T09:53:05;100405.31;;;34.30;36.05
48624;BME280;34422;45.802;16.114;2022-07-22T09:55:31;100412.28;;;34.58;35.47
48624;BME280;34422;45.802;16.114;2022-07-22T09:58:00;100408.53;;;34.32;34.73
48624;BME280;34422;45.802;16.114;2022-07-22T10:00:27;100414.16;;;34.32;35.32
48624;BME280;34422;45.802;16.114;2022-07-22T10:02:58;100405.84;;;34.19;34.76
48624;BME280;34422;45.802;16.114;2022-07-22T10:05:27;100403.09;;;34.39;34.63
48624;BME280;34422;45.802;16.114;2022-07-22T10:07:55;100405.72;;;34.51;34.42
48624;BME280;34422;45.802;16.114;2022-07-22T10:10:27;100400.19;;;34.35;34.76
48624;BME280;34422;45.802;16.114;2022-07-22T10:12:57;100388.47;;;34.72;33.85
48624;BME280;34422;45.802;16.114;2022-07-22T10:15:25;100395.16;;;35.06;33.76
48624;BME280;34422;45.802;16.114;2022-07-22T10:17:59;100397.78;;;35.18;33.75
48624;BME280;34422;45.802;16.114;2022-07-22T10:20:30;100395.47;;;35.46;34.14
48624;BME280;34422;45.802;16.114;2022-07-22T10:23:05;100391.94;;;35.26;34.14
48624;BME280;34422;45.802;16.114;2022-07-22T10:25:49;100388.88;;;35.35;33.30
48624;BME280;34422;45.802;16.114;2022-07-22T10:30:49;100392.09;;;34.91;33.54
48624;BME280;34422;45.802;16.114;2022-07-22T10:33:18;100394.78;;;34.65;33.63
48624;BME280;34422;45.802;16.114;2022-07-22T10:35:53;100388.59;;;34.37;33.52
48624;BME280;34422;45.802;16.114;2022-07-22T10:38:21;100393.72;;;34.73;33.33
48624;BME280;34422;45.802;16.114;2022-07-22T10:40:49;100386.03;;;34.89;33.07
48624;BME280;34422;45.802;16.114;2022-07-22T10:43:18;100390.72;;;35.05;33.03
48624;BME280;34422;45.802;16.114;2022-07-22T10:45:48;100379.13;;;35.29;33.24
48624;BME280;34422;45.802;16.114;2022-07-22T10:48:22;100377.56;;;35.32;32.44
48624;BME280;34422;45.802;16.114;2022-07-22T10:53:58;100374.53;;;34.37;32.31
48624;BME280;34422;45.802;16.114;2022-07-22T10:56:32;100377.63;;;34.51;32.74
48624;BME280;34422;45.802;16.114;2022-07-22T10:59:10;100373.72;;;34.36;32.99
48624;BME280;34422;45.802;16.114;2022-07-22T11:01:45;100362.69;;;34.66;33.11
48624;BME280;34422;45.802;16.114;2022-07-22T11:04:26;100359.84;;;34.85;33.12
48624;BME280;34422;45.802;16.114;2022-07-22T11:06:55;100362.00;;;35.38;33.41
48624;BME280;34422;45.802;16.114;2022-07-22T11:09:30;100360.00;;;35.38;32.87
48624;BME280;34422;45.802;16.114;2022-07-22T11:11:57;100366.66;;;34.65;33.20
48624;BME280;34422;45.802;16.114;2022-07-22T11:14:29;100358.97;;;34.62;33.53
48624;BME280;34422;45.802;16.114;2022-07-22T11:17:04;100361.66;;;34.55;33.91
48624;BME280;34422;45.802;16.114;2022-07-22T11:19:32;100352.88;;;34.56;33.19
48624;BME280;34422;45.802;16.114;2022-07-22T11:22:02;100353.41;;;34.43;32.77
48624;BME280;34422;45.802;16.114;2022-07-22T11:24:31;100348.34;;;34.52;32.52
48624;BME280;34422;45.802;16.114;2022-07-22T11:26:58;100351.56;;;34.73;31.28
48624;BME280;34422;45.802;16.114;2022-07-22T11:29:28;100346.63;;;35.09;30.32
48624;BME280;34422;45.802;16.114;2022-07-22T11:31:57;100344.16;;;35.07;29.64
48624;BME280;34422;45.802;16.114;2022-07-22T11:34:26;100345.16;;;35.18;30.00
48624;BME280;34422;45.802;16.114;2022-07-22T11:36:54;100343.34;;;35.07;30.20
48624;BME280;34422;45.802;16.114;2022-07-22T11:39:31;100342.78;;;35.20;30.28
48624;BME280;34422;45.802;16.114;2022-07-22T11:41:59;100346.47;;;35.24;29.67
48624;BME280;34422;45.802;16.114;2022-07-22T11:44:31;100340.50;;;34.80;30.67
48624;BME280;34422;45.802;16.114;2022-07-22T11:46:59;100330.09;;;35.07;30.76
48624;BME280;34422;45.802;16.114;2022-07-22T11:49:30;100334.63;;;35.12;30.60
48624;BME280;34422;45.802;16.114;2022-07-22T11:51:58;100327.06;;;35.42;30.46
48624;BME280;34422;45.802;16.114;2022-07-22T11:54:25;100324.84;;;35.55;28.64
48624;BME280;34422;45.802;16.114;2022-07-22T11:56:52;100328.47;;;35.82;27.70
48624;BME280;34422;45.802;16.114;2022-07-22T11:59:19;100328.97;;;35.87;27.03
48624;BME280;34422;45.802;16.114;2022-07-22T12:01:47;100308.44;;;35.87;26.50
48624;BME280;34422;45.802;16.114;2022-07-22T12:04:19;100323.94;;;36.04;26.87
48624;BME280;34422;45.802;16.114;2022-07-22T12:06:46;100322.75;;;36.35;26.82
48624;BME280;34422;45.802;16.114;2022-07-22T12:09:15;100314.53;;;36.22;26.16
48624;BME280;34422;45.802;16.114;2022-07-22T12:11:46;100314.19;;;35.94;25.35
48624;BME280;34422;45.802;16.114;2022-07-22T12:14:18;100319.84;;;35.97;24.29
48624;BME280;34422;45.802;16.114;2022-07-22T12:19:26;100311.22;;;36.17;26.27
48624;BME280;34422;45.802;16.114;2022-07-22T12:27:06;100292.34;;;35.87;26.52
48624;BME280;34422;45.802;16.114;2022-07-22T12:32:04;100291.66;;;35.68;26.49
48624;BME280;34422;45.802;16.114;2022-07-22T12:37:18;100289.69;;;35.72;27.69
48624;BME280;34422;45.802;16.114;2022-07-22T12:42:33;100277.09;;;35.88;26.12
48624;BME280;34422;45.802;16.114;2022-07-22T12:45:02;100280.53;;;35.75;26.18
48624;BME280;34422;45.802;16.114;2022-07-22T12:50:28;100264.25;;;35.08;27.17
48624;BME280;34422;45.802;16.114;2022-07-22T12:52:58;100265.59;;;35.18;26.88
48624;BME280;34422;45.802;16.114;2022-07-22T12:55:26;100270.72;;;35.35;26.33
48624;BME280;34422;45.802;16.114;2022-07-22T12:57:53;100269.69;;;35.77;25.70
48624;BME280;34422;45.802;16.114;2022-07-22T13:00:24;100259.63;;;35.76;26.64
48624;BME280;34422;45.802;16.114;2022-07-22T13:02:52;100258.13;;;35.55;26.80
48624;BME280;34422;45.802;16.114;2022-07-22T13:05:19;100257.75;;;35.87;26.36
48624;BME280;34422;45.802;16.114;2022-07-22T13:07:46;100258.78;;;36.05;26.25
48624;BME280;34422;45.802;16.114;2022-07-22T13:10:13;100249.75;;;35.89;27.28